Time;durP1;ratioP1;P1;durP2;ratioP2;P2;SDS_P1;SDS_P2;PMS_P1;PMS_P2;Temp;Humidity;BMP_temperature;BMP_pressure;BME280_temperature;BME280_humidity;BME280_pressure;Samples;Min_cycle;Max_cycle;Signal;HPM_P1;HPM_P2
2023/12/08 00:02:25;;;;;;;22.88;11.30;;;0.40;99.90;;;;;;4949748;28;20568;-77
2023/12/08 00:04:50;;;;;;;20.98;11.05;;;0.40;99.90;;;;;;4956514;28;20047;-77
2023/12/08 00:07:16;;;;;;;21.10;10.90;;;0.50;99.90;;;;;;4966196;28;20121;-78
2023/12/08 00:09:42;;;;;;;22.52;10.73;;;0.50;99.90;;;;;;4962521;28;20042;-78
2023/12/08 00:12:08;;;;;;;22.35;10.93;;;0.50;99.90;;;;;;4931772;28;20121;-78
2023/12/08 00:14:34;;;;;;;21.95;10.57;;;0.50;99.90;;;;;;4945960;28;20396;-78
2023/12/08 00:16:59;;;;;;;24.23;12.13;;;0.50;99.90;;;;;;4940550;28;20035;-78
2023/12/08 00:19:25;;;;;;;24.77;11.02;;;0.50;99.90;;;;;;4972655;28;20046;-77
2023/12/08 00:21:51;;;;;;;20.42;10.65;;;0.50;99.90;;;;;;4955068;28;20043;-78
2023/12/08 00:24:16;;;;;;;20.08;10.77;;;0.50;99.90;;;;;;4963234;28;20100;-78
2023/12/08 00:26:42;;;;;;;26.75;11.95;;;0.50;99.90;;;;;;4957170;28;20035;-78
2023/12/08 00:29:08;;;;;;;21.02;10.57;;;0.50;99.90;;;;;;4954783;28;20047;-78
2023/12/08 00:31:33;;;;;;;19.85;11.23;;;1.00;99.90;;;;;;4941636;28;20583;-77
2023/12/08 00:33:59;;;;;;;25.17;11.60;;;0.50;99.90;;;;;;4950141;28;20509;-77
2023/12/08 00:36:25;;;;;;;22.30;10.50;;;0.50;99.90;;;;;;4915692;28;20039;-77
2023/12/08 00:38:51;;;;;;;21.67;12.20;;;0.50;99.90;;;;;;4955220;28;20382;-77
2023/12/08 00:41:16;;;;;;;18.42;11.30;;;0.40;99.90;;;;;;4961684;28;20057;-77
2023/12/08 00:43:42;;;;;;;23.48;12.35;;;1.00;99.90;;;;;;4961401;28;20050;-77
2023/12/08 00:46:09;;;;;;;22.70;11.65;;;0.40;99.90;;;;;;4949776;28;20067;-77
2023/12/08 00:48:35;;;;;;;22.02;11.15;;;0.40;99.90;;;;;;4942556;28;20050;-77
2023/12/08 00:51:01;;;;;;;25.75;12.35;;;0.40;99.90;;;;;;4941801;28;20039;-77
2023/12/08 00:53:27;;;;;;;18.65;10.18;;;0.70;99.90;;;;;;4942037;28;20042;-77
2023/12/08 00:55:53;;;;;;;26.33;11.73;;;0.40;99.90;;;;;;4948426;28;20130;-78
2023/12/08 00:58:19;;;;;;;21.33;11.98;;;1.30;99.90;;;;;;4951050;28;20047;-78
2023/12/08 01:00:45;;;;;;;20.90;10.50;;;0.90;99.90;;;;;;4945630;28;20043;-77
2023/12/08 01:03:11;;;;;;;24.10;10.75;;;0.40;99.90;;;;;;4959720;28;20520;-77
2023/12/08 01:05:37;;;;;;;22.58;12.02;;;1.60;99.90;;;;;;4948595;28;20035;-77
2023/12/08 01:08:02;;;;;;;22.15;11.32;;;0.40;99.90;;;;;;4947759;28;20049;-77
2023/12/08 01:10:28;;;;;;;25.90;11.90;;;0.60;99.90;;;;;;4965945;28;20043;-77
2023/12/08 01:12:54;;;;;;;27.63;11.80;;;1.10;99.90;;;;;;4928138;28;20031;-77
2023/12/08 01:15:19;;;;;;;27.35;12.55;;;0.40;99.90;;;;;;4960340;28;20476;-77
2023/12/08 01:17:45;;;;;;;22.55;9.73;;;0.40;99.90;;;;;;4959584;28;20187;-77
2023/12/08 01:20:11;;;;;;;22.38;12.20;;;0.40;99.90;;;;;;4948103;28;20115;-77
2023/12/08 01:22:37;;;;;;;25.15;11.40;;;0.40;99.90;;;;;;4955316;28;20094;-77
2023/12/08 01:25:03;;;;;;;25.73;12.02;;;0.40;99.90;;;;;;4910858;28;20031;-77
2023/12/08 01:27:28;;;;;;;24.25;12.27;;;0.40;99.90;;;;;;4948491;28;20061;-77
2023/12/08 01:29:54;;;;;;;25.88;12.90;;;0.40;99.90;;;;;;4944929;28;20169;-77
2023/12/08 01:32:20;;;;;;;33.65;13.48;;;0.40;99.90;;;;;;4952313;28;20481;-77
2023/12/08 01:34:45;;;;;;;24.90;12.57;;;0.40;99.90;;;;;;4968077;28;20408;-77
2023/12/08 01:37:11;;;;;;;24.05;12.45;;;0.30;99.90;;;;;;4940849;28;20039;-77
2023/12/08 01:39:37;;;;;;;25.73;12.60;;;0.40;99.90;;;;;;4952462;28;20039;-77
2023/12/08 01:42:03;;;;;;;22.50;12.85;;;0.30;99.90;;;;;;4941541;28;20525;-77
2023/12/08 01:44:29;;;;;;;29.92;12.70;;;0.30;99.90;;;;;;4967525;28;20035;-77
2023/12/08 01:46:55;;;;;;;25.95;12.88;;;0.40;99.90;;;;;;4940676;28;20613;-77
2023/12/08 01:49:21;;;;;;;29.35;12.80;;;0.30;99.90;;;;;;4950756;28;20129;-77
2023/12/08 01:51:49;;;;;;;29.10;12.05;;;0.40;99.90;;;;;;4950654;28;20118;-77
2023/12/08 01:54:16;;;;;;;25.15;12.13;;;0.30;99.90;;;;;;4944340;28;20050;-77
2023/12/08 01:56:42;;;;;;;25.45;12.35;;;0.40;99.90;;;;;;4966685;28;20122;-77
2023/12/08 01:59:08;;;;;;;22.83;11.40;;;0.30;99.90;;;;;;4959874;28;20141;-77
2023/12/08 02:01:34;;;;;;;23.10;11.77;;;1.00;99.90;;;;;;4949280;28;20050;-77
2023/12/08 02:04:01;;;;;;;22.10;11.85;;;0.40;99.90;;;;;;4944915;28;20039;-77
2023/12/08 02:06:27;;;;;;;22.25;11.93;;;0.30;99.90;;;;;;4935889;28;20485;-77
2023/12/08 02:08:53;;;;;;;26.45;11.48;;;0.30;99.90;;;;;;4918128;28;20043;-77
2023/12/08 02:11:19;;;;;;;24.42;10.88;;;0.50;99.90;;;;;;4955632;28;20121;-77
2023/12/08 02:13:45;;;;;;;20.85;10.48;;;0.30;99.90;;;;;;4944434;28;20067;-77
2023/12/08 02:16:18;;;;;;;23.50;11.93;;;0.40;99.90;;;;;;4939113;28;20042;-77
2023/12/08 02:18:44;;;;;;;20.30;10.45;;;0.30;99.90;;;;;;4982739;28;20046;-77
2023/12/08 02:21:11;;;;;;;22.98;12.60;;;0.80;99.90;;;;;;4944100;28;20038;-77
2023/12/08 02:23:37;;;;;;;25.83;11.95;;;0.30;99.90;;;;;;4967347;28;20089;-78
2023/12/08 02:26:06;;;;;;;24.80;12.15;;;0.30;99.90;;;;;;4971941;28;20038;-77
2023/12/08 02:28:32;;;;;;;22.27;10.93;;;0.30;99.90;;;;;;4962181;28;20047;-77
2023/12/08 02:31:00;;;;;;;25.30;10.93;;;0.30;99.90;;;;;;4970434;28;20043;-77
2023/12/08 02:33:31;;;;;;;23.08;10.85;;;0.90;99.90;;;;;;4961224;28;20098;-77
2023/12/08 02:36:04;;;;;;;23.00;10.43;;;0.30;99.90;;;;;;4953996;28;20050;-77
2023/12/08 02:38:31;;;;;;;20.13;11.32;;;0.40;99.90;;;;;;4967889;28;20074;-77
2023/12/08 02:40:57;;;;;;;21.45;11.13;;;0.40;99.90;;;;;;4963510;28;20523;-77
2023/12/08 02:43:23;;;;;;;24.75;10.82;;;0.50;99.90;;;;;;4960942;28;20043;-77
2023/12/08 02:45:48;;;;;;;27.50;11.80;;;0.30;99.90;;;;;;4946104;28;20035;-77
2023/12/08 02:48:14;;;;;;;24.05;11.93;;;0.30;99.90;;;;;;4930530;28;20038;-77
2023/12/08 02:50:41;;;;;;;23.35;11.00;;;0.90;99.90;;;;;;4925645;28;20039;-77
2023/12/08 02:53:06;;;;;;;22.83;10.77;;;0.40;99.90;;;;;;4965311;28;20309;-77
2023/12/08 02:55:32;;;;;;;21.05;10.73;;;0.40;99.90;;;;;;4951132;28;20138;-77
2023/12/08 02:57:58;;;;;;;21.95;10.50;;;0.40;99.90;;;;;;4921022;28;20059;-77
2023/12/08 03:00:23;;;;;;;24.33;11.60;;;0.40;99.90;;;;;;4943768;28;20046;-77
2023/12/08 03:02:49;;;;;;;26.35;10.82;;;0.40;99.90;;;;;;4962788;28;20100;-77
2023/12/08 03:05:15;;;;;;;20.60;10.30;;;0.40;99.90;;;;;;4953971;28;20492;-77
2023/12/08 03:07:40;;;;;;;19.75;10.07;;;0.40;99.90;;;;;;4961349;28;20242;-77
2023/12/08 03:10:06;;;;;;;18.65;10.20;;;0.50;99.90;;;;;;4941581;28;20248;-77
2023/12/08 03:12:32;;;;;;;20.35;11.20;;;0.40;99.90;;;;;;4952067;28;20130;-77
2023/12/08 03:14:58;;;;;;;18.63;9.98;;;0.40;99.90;;;;;;4943507;28;20506;-77
2023/12/08 03:17:24;;;;;;;25.85;11.55;;;0.80;99.90;;;;;;4951250;28;20047;-77
2023/12/08 03:19:49;;;;;;;21.42;11.18;;;0.40;99.90;;;;;;4944443;28;20039;-77
2023/12/08 03:22:15;;;;;;;21.92;10.35;;;1.10;99.90;;;;;;4947285;28;20035;-77
2023/12/08 03:24:41;;;;;;;19.55;10.10;;;0.40;99.90;;;;;;4951420;28;20038;-77
2023/12/08 03:27:06;;;;;;;20.35;9.82;;;0.40;99.90;;;;;;4964661;28;20144;-77
2023/12/08 03:29:32;;;;;;;19.83;11.30;;;0.50;99.90;;;;;;4929375;28;20046;-77
2023/12/08 03:31:58;;;;;;;20.75;10.63;;;0.50;99.90;;;;;;4958055;28;20078;-77
2023/12/08 03:34:23;;;;;;;18.02;9.70;;;0.50;99.90;;;;;;4962485;28;20079;-77
2023/12/08 03:36:49;;;;;;;21.50;11.25;;;1.30;99.90;;;;;;4948541;28;20045;-77
2023/12/08 03:39:14;;;;;;;20.70;10.43;;;0.50;99.90;;;;;;4950915;28;20034;-78
2023/12/08 03:41:40;;;;;;;21.35;11.10;;;0.50;99.90;;;;;;4967139;28;20289;-78
2023/12/08 03:44:06;;;;;;;23.40;12.20;;;0.50;99.90;;;;;;4933962;28;20051;-78
2023/12/08 03:46:31;;;;;;;22.33;11.20;;;0.40;99.90;;;;;;4945526;28;20054;-78
2023/12/08 03:48:57;;;;;;;23.55;11.75;;;0.40;99.90;;;;;;4945789;28;20035;-78
2023/12/08 03:51:23;;;;;;;20.48;11.43;;;0.40;99.90;;;;;;4930908;28;20051;-78
2023/12/08 03:53:48;;;;;;;23.83;11.65;;;0.30;99.90;;;;;;4952908;28;20035;-78
2023/12/08 03:56:14;;;;;;;22.13;11.63;;;0.30;99.90;;;;;;4944454;28;20130;-78
2023/12/08 03:58:40;;;;;;;20.92;10.52;;;0.50;99.90;;;;;;4949832;28;20110;-78
2023/12/08 04:01:06;;;;;;;26.25;11.13;;;0.50;99.90;;;;;;4945867;28;20042;-78
2023/12/08 04:03:31;;;;;;;19.65;10.52;;;0.20;99.90;;;;;;4962465;28;20129;-78
2023/12/08 04:05:57;;;;;;;25.63;12.30;;;-1.20;99.90;;;;;;4952294;28;20038;-78
2023/12/08 04:08:23;;;;;;;24.17;10.80;;;0.20;99.90;;;;;;4953115;28;20066;-78
2023/12/08 04:10:48;;;;;;;26.60;11.82;;;0.10;99.90;;;;;;4948487;28;20030;-78
2023/12/08 04:13:14;;;;;;;28.15;12.90;;;0.10;99.90;;;;;;4964963;28;20183;-78
2023/12/08 04:15:40;;;;;;;19.90;10.95;;;0.10;99.90;;;;;;4949098;28;20046;-78
2023/12/08 04:18:05;;;;;;;28.85;12.60;;;0.10;99.90;;;;;;4944864;28;20039;-78
2023/12/08 04:20:32;;;;;;;25.92;11.02;;;0.10;99.90;;;;;;4963003;28;20038;-78
2023/12/08 04:22:58;;;;;;;24.13;11.65;;;0.10;99.90;;;;;;4958280;28;20394;-78
2023/12/08 04:25:23;;;;;;;22.42;11.25;;;1.50;99.90;;;;;;4963152;28;20043;-78
2023/12/08 04:27:49;;;;;;;19.77;9.75;;;0.10;99.90;;;;;;4964434;28;20057;-78
2023/12/08 04:30:14;;;;;;;25.17;12.05;;;0.10;99.90;;;;;;4948475;28;20034;-78
2023/12/08 04:32:40;;;;;;;27.98;11.88;;;1.70;99.90;;;;;;4960683;28;20035;-78
2023/12/08 04:35:06;;;;;;;26.63;12.18;;;0.60;99.90;;;;;;4936951;28;20114;-78
2023/12/08 04:37:32;;;;;;;28.60;12.43;;;0.10;99.90;;;;;;4953232;28;20046;-78
2023/12/08 04:39:58;;;;;;;23.35;11.90;;;0.10;99.90;;;;;;4958649;28;20413;-78
2023/12/08 04:42:23;;;;;;;22.60;10.93;;;0.00;99.90;;;;;;4926674;28;20036;-79
2023/12/08 04:44:49;;;;;;;20.60;10.75;;;0.10;99.90;;;;;;4962236;28;20046;-77
2023/12/08 04:47:14;;;;;;;25.85;11.38;;;0.50;99.90;;;;;;4967642;28;20073;-76
2023/12/08 04:49:40;;;;;;;24.13;11.35;;;0.10;99.90;;;;;;4951014;28;20274;-76
2023/12/08 04:52:06;;;;;;;22.88;10.98;;;0.10;99.90;;;;;;4958934;28;20059;-76
2023/12/08 04:54:31;;;;;;;24.73;11.75;;;0.10;99.90;;;;;;4939779;28;20037;-77
2023/12/08 04:56:57;;;;;;;26.83;12.27;;;0.10;99.90;;;;;;4954466;28;20046;-77
2023/12/08 04:59:23;;;;;;;23.52;10.38;;;0.40;99.90;;;;;;4930851;28;20489;-76
2023/12/08 05:01:52;;;;;;;20.52;10.02;;;0.10;99.90;;;;;;4961409;28;20047;-76
2023/12/08 05:04:22;;;;;;;24.75;10.80;;;0.10;99.90;;;;;;4962299;28;20050;-76
2023/12/08 05:06:47;;;;;;;24.92;11.90;;;0.20;99.90;;;;;;4956760;28;20050;-77
2023/12/08 05:09:13;;;;;;;26.55;11.82;;;0.10;99.90;;;;;;4951155;28;20047;-77
2023/12/08 05:11:39;;;;;;;25.08;11.32;;;0.10;99.90;;;;;;4933631;28;20043;-76
2023/12/08 05:14:04;;;;;;;24.63;11.38;;;0.10;99.90;;;;;;4962412;28;20058;-76
2023/12/08 05:16:30;;;;;;;30.85;12.98;;;0.10;99.90;;;;;;4938776;28;20436;-76
2023/12/08 05:18:56;;;;;;;23.98;11.38;;;0.10;99.90;;;;;;4911990;28;20034;-76
2023/12/08 05:21:21;;;;;;;23.40;11.43;;;0.10;99.90;;;;;;4935259;28;20521;-76
2023/12/08 05:23:48;;;;;;;28.17;12.73;;;0.10;99.90;;;;;;4948955;28;20114;-76
2023/12/08 05:26:13;;;;;;;23.17;12.05;;;0.10;99.90;;;;;;4950711;28;20042;-77
2023/12/08 05:28:39;;;;;;;24.67;12.10;;;0.00;99.90;;;;;;4939615;28;20658;-76
2023/12/08 05:31:05;;;;;;;18.98;9.13;;;0.20;99.90;;;;;;4946044;28;20055;-77
2023/12/08 05:33:31;;;;;;;27.08;12.32;;;0.10;99.90;;;;;;4959312;28;20039;-77
2023/12/08 05:35:57;;;;;;;24.77;11.57;;;0.00;99.90;;;;;;4964659;28;20047;-77
2023/12/08 05:38:22;;;;;;;26.48;12.80;;;0.10;99.90;;;;;;4958129;28;20117;-77
2023/12/08 05:40:49;;;;;;;26.15;13.48;;;0.00;99.90;;;;;;4958984;28;20038;-77
2023/12/08 05:43:14;;;;;;;33.25;12.38;;;0.00;99.90;;;;;;4946384;28;20046;-77
2023/12/08 05:45:40;;;;;;;27.38;11.73;;;0.20;99.90;;;;;;4948838;28;20057;-77
2023/12/08 05:48:06;;;;;;;27.75;12.82;;;0.00;99.90;;;;;;4945596;28;20042;-77
2023/12/08 05:50:31;;;;;;;24.48;12.02;;;0.00;99.90;;;;;;4955930;28;20699;-77
2023/12/08 05:52:57;;;;;;;27.45;11.02;;;1.10;99.90;;;;;;4964276;28;20089;-77
2023/12/08 05:55:23;;;;;;;33.97;12.93;;;0.00;99.90;;;;;;4948264;28;20070;-77
2023/12/08 05:57:48;;;;;;;29.73;13.18;;;0.00;99.90;;;;;;4947515;28;20055;-77
2023/12/08 06:00:18;;;;;;;30.50;12.73;;;0.00;99.90;;;;;;4935043;28;20034;-77
2023/12/08 06:02:45;;;;;;;24.98;11.27;;;0.00;99.90;;;;;;4962591;28;20067;-77
2023/12/08 06:05:12;;;;;;;18.75;11.02;;;0.00;99.90;;;;;;4949134;28;20042;-77
2023/12/08 06:07:38;;;;;;;28.58;13.48;;;0.00;99.90;;;;;;4931648;28;20082;-77
2023/12/08 06:10:05;;;;;;;28.40;12.02;;;0.80;99.90;;;;;;4929791;28;20074;-76
2023/12/08 06:12:31;;;;;;;23.77;12.07;;;0.00;99.90;;;;;;4944872;28;20116;-76
2023/12/08 06:15:00;;;;;;;26.70;12.43;;;0.00;99.90;;;;;;4948025;28;20076;-76
2023/12/08 06:17:26;;;;;;;29.77;12.10;;;0.60;99.90;;;;;;4958573;28;20067;-76
2023/12/08 06:19:53;;;;;;;27.10;11.35;;;0.00;99.90;;;;;;4968955;28;20046;-76
2023/12/08 06:22:19;;;;;;;26.33;12.65;;;0.00;99.90;;;;;;4958405;28;20090;-76
2023/12/08 06:24:44;;;;;;;27.65;12.80;;;0.00;99.90;;;;;;4962079;28;20034;-76
2023/12/08 06:27:10;;;;;;;29.05;13.45;;;0.00;99.90;;;;;;4952957;28;20047;-76
2023/12/08 06:29:36;;;;;;;39.17;14.52;;;0.00;99.90;;;;;;4962075;28;20039;-76
2023/12/08 06:32:02;;;;;;;29.33;12.98;;;0.70;99.90;;;;;;4943882;28;20043;-76
2023/12/08 06:34:28;;;;;;;25.98;12.70;;;0.00;99.90;;;;;;4945579;28;20047;-76
2023/12/08 06:36:54;;;;;;;30.77;13.77;;;0.00;99.90;;;;;;4946572;28;20053;-76
2023/12/08 06:39:20;;;;;;;31.05;13.30;;;0.00;99.90;;;;;;4960666;28;20050;-76
2023/12/08 06:41:46;;;;;;;28.80;12.73;;;0.70;99.90;;;;;;4951089;28;20043;-76
2023/12/08 06:44:12;;;;;;;25.40;12.02;;;0.00;99.90;;;;;;4961514;28;20097;-76
2023/12/08 06:46:38;;;;;;;31.23;14.15;;;0.00;99.90;;;;;;4943788;28;20404;-77
2023/12/08 06:49:04;;;;;;;34.10;15.55;;;0.00;99.90;;;;;;4937523;28;20043;-77
2023/12/08 06:51:30;;;;;;;25.67;12.02;;;0.00;99.90;;;;;;4946613;28;20039;-76
2023/12/08 06:53:56;;;;;;;25.00;12.40;;;0.30;99.90;;;;;;4950290;28;20026;-77
2023/12/08 06:56:22;;;;;;;30.25;12.88;;;0.00;99.90;;;;;;4956312;28;20076;-76
2023/12/08 06:58:48;;;;;;;28.27;13.93;;;0.00;99.90;;;;;;4947564;28;20203;-76
2023/12/08 07:01:14;;;;;;;30.88;14.57;;;0.00;99.90;;;;;;4955953;28;20492;-76
2023/12/08 07:03:40;;;;;;;27.00;13.10;;;0.00;99.90;;;;;;4948792;28;20055;-76
2023/12/08 07:06:06;;;;;;;29.33;13.85;;;0.00;99.90;;;;;;4964258;28;20038;-76
2023/12/08 07:08:31;;;;;;;31.20;13.60;;;0.00;99.90;;;;;;4938814;28;20077;-76
2023/12/08 07:10:57;;;;;;;34.10;15.50;;;0.00;99.90;;;;;;4938975;28;20042;-76
2023/12/08 07:13:23;;;;;;;31.83;12.95;;;0.00;99.90;;;;;;4943491;28;20062;-76
2023/12/08 07:15:48;;;;;;;31.00;13.57;;;-0.10;99.90;;;;;;4940312;28;20035;-76
2023/12/08 07:18:14;;;;;;;33.83;14.35;;;0.00;99.90;;;;;;4965622;28;20566;-76
2023/12/08 07:20:40;;;;;;;30.35;13.68;;;0.00;99.90;;;;;;4949375;28;20040;-76
2023/12/08 07:23:05;;;;;;;26.92;13.40;;;0.00;99.90;;;;;;4954033;28;20090;-77
2023/12/08 07:25:32;;;;;;;33.50;14.73;;;0.00;99.90;;;;;;4961272;28;20509;-78
2023/12/08 07:27:57;;;;;;;29.17;13.30;;;0.10;99.90;;;;;;4954302;28;20796;-77
2023/12/08 07:30:23;;;;;;;30.73;13.30;;;0.00;99.90;;;;;;4953316;28;20043;-77
2023/12/08 07:32:50;;;;;;;33.90;13.63;;;0.00;99.90;;;;;;4954633;28;20179;-77
2023/12/08 07:35:16;;;;;;;32.00;14.68;;;0.00;99.90;;;;;;4955719;28;20532;-77
2023/12/08 07:37:42;;;;;;;34.08;14.35;;;0.00;99.90;;;;;;4966482;28;20126;-77
2023/12/08 07:40:09;;;;;;;33.92;14.70;;;0.00;99.90;;;;;;4951191;28;20062;-77
2023/12/08 07:42:36;;;;;;;33.22;14.63;;;0.00;99.90;;;;;;4935002;28;20035;-77
2023/12/08 07:45:04;;;;;;;39.38;14.35;;;0.00;99.90;;;;;;4965796;28;20405;-78
2023/12/08 07:47:30;;;;;;;27.35;12.63;;;0.00;99.90;;;;;;4949379;28;20489;-75
2023/12/08 07:49:55;;;;;;;30.48;14.13;;;0.30;99.90;;;;;;4948521;28;20077;-75
2023/12/08 07:52:21;;;;;;;29.10;13.98;;;0.00;99.90;;;;;;4956562;28;20053;-75
2023/12/08 07:54:47;;;;;;;34.55;15.13;;;0.10;99.90;;;;;;4957295;28;20524;-75
2023/12/08 07:57:12;;;;;;;36.35;13.55;;;0.10;99.90;;;;;;4953285;28;20407;-75
2023/12/08 07:59:38;;;;;;;28.88;13.85;;;0.10;99.90;;;;;;4950734;28;20360;-75
2023/12/08 08:02:04;;;;;;;33.55;13.23;;;0.10;99.90;;;;;;4968548;28;20043;-75
2023/12/08 08:04:30;;;;;;;28.77;12.88;;;0.10;99.90;;;;;;4948743;28;20508;-76
2023/12/08 08:06:56;;;;;;;33.80;13.73;;;0.10;99.90;;;;;;4951056;28;20046;-76
2023/12/08 08:09:22;;;;;;;26.33;12.75;;;0.20;99.90;;;;;;4950162;28;20105;-76
2023/12/08 08:11:48;;;;;;;32.05;13.52;;;0.40;99.90;;;;;;4963026;28;20110;-77
2023/12/08 08:14:14;;;;;;;27.38;13.40;;;0.20;99.90;;;;;;4947297;28;20035;-77
2023/12/08 08:16:39;;;;;;;29.27;13.82;;;0.60;99.90;;;;;;4969789;28;20041;-78
2023/12/08 08:19:05;;;;;;;35.50;14.23;;;0.20;99.90;;;;;;4928168;28;20031;-77
2023/12/08 08:21:31;;;;;;;27.30;13.60;;;0.20;99.90;;;;;;4959136;28;20055;-78
2023/12/08 08:23:56;;;;;;;35.28;14.65;;;0.20;99.90;;;;;;4950648;28;20042;-77
2023/12/08 08:26:24;;;;;;;32.60;14.27;;;0.20;99.90;;;;;;4954665;28;20050;-78
2023/12/08 08:28:49;;;;;;;33.13;13.55;;;0.20;99.90;;;;;;4948633;28;20555;-77
2023/12/08 08:31:18;;;;;;;29.77;13.85;;;0.20;99.90;;;;;;4953097;28;20165;-77
2023/12/08 08:33:45;;;;;;;32.38;14.05;;;0.20;99.90;;;;;;4948814;28;20113;-77
2023/12/08 08:36:11;;;;;;;29.48;12.77;;;0.20;99.90;;;;;;4956189;28;20121;-77
2023/12/08 08:38:37;;;;;;;31.83;13.60;;;0.20;99.90;;;;;;4961765;28;20046;-77
2023/12/08 08:41:04;;;;;;;28.83;13.75;;;0.20;99.90;;;;;;4949274;28;20035;-76
2023/12/08 08:43:30;;;;;;;31.48;12.50;;;0.20;99.90;;;;;;4952782;28;20100;-76
2023/12/08 08:45:56;;;;;;;32.45;14.27;;;0.20;99.90;;;;;;4955215;28;20401;-76
2023/12/08 08:48:21;;;;;;;25.55;12.23;;;0.20;99.90;;;;;;4952131;28;20077;-76
2023/12/08 08:50:50;;;;;;;27.80;12.43;;;0.20;99.90;;;;;;4971737;28;20035;-76
2023/12/08 08:53:16;;;;;;;32.45;13.48;;;0.20;99.90;;;;;;4944336;28;20046;-76
2023/12/08 08:55:43;;;;;;;29.35;13.18;;;0.20;99.90;;;;;;4939327;28;20035;-76
2023/12/08 08:58:08;;;;;;;25.05;13.27;;;0.20;99.90;;;;;;4956974;28;20114;-76
2023/12/08 09:00:34;;;;;;;28.77;13.88;;;0.20;99.90;;;;;;4952618;28;20047;-76
2023/12/08 09:03:01;;;;;;;26.05;14.20;;;0.20;99.90;;;;;;4968618;28;20046;-76
2023/12/08 09:05:27;;;;;;;28.60;14.65;;;0.20;99.90;;;;;;4973096;28;20085;-76
2023/12/08 09:07:53;;;;;;;28.38;13.05;;;0.20;99.90;;;;;;4941897;28;20038;-77
2023/12/08 09:10:19;;;;;;;27.65;13.45;;;0.50;99.90;;;;;;4971228;28;20123;-76
2023/12/08 09:12:45;;;;;;;30.15;13.85;;;0.20;99.90;;;;;;4970372;28;20043;-76
2023/12/08 09:15:12;;;;;;;29.70;12.52;;;0.20;99.90;;;;;;4954524;28;20060;-76
2023/12/08 09:17:38;;;;;;;28.50;12.38;;;0.30;99.90;;;;;;4949764;28;20348;-76
2023/12/08 09:20:07;;;;;;;24.88;12.55;;;0.20;99.90;;;;;;4954997;28;20041;-76
2023/12/08 09:22:34;;;;;;;31.88;13.13;;;0.20;99.90;;;;;;4955470;28;20054;-76
2023/12/08 09:24:59;;;;;;;26.52;13.30;;;0.70;99.90;;;;;;4964881;28;20126;-76
2023/12/08 09:27:25;;;;;;;28.08;13.50;;;0.20;99.90;;;;;;4944691;28;20524;-77
2023/12/08 09:29:51;;;;;;;34.97;14.98;;;0.30;99.90;;;;;;4948492;28;20042;-76
2023/12/08 09:32:16;;;;;;;26.85;12.15;;;0.30;99.90;;;;;;4941078;28;20043;-76
2023/12/08 09:34:42;;;;;;;27.95;12.30;;;0.30;99.90;;;;;;4950462;28;20031;-76
2023/12/08 09:37:08;;;;;;;34.58;14.00;;;0.30;99.90;;;;;;4961540;28;20038;-76
2023/12/08 09:39:33;;;;;;;32.67;13.68;;;0.30;99.90;;;;;;4937437;28;20081;-76
2023/12/08 09:42:05;;;;;;;27.95;13.82;;;0.30;99.90;;;;;;4922591;28;20046;-76
2023/12/08 09:44:32;;;;;;;35.95;14.32;;;0.30;99.90;;;;;;4952718;28;20720;-76
2023/12/08 09:47:02;;;;;;;28.00;13.52;;;0.30;99.90;;;;;;4922923;28;20454;-75
2023/12/08 09:49:40;;;;;;;30.70;14.23;;;0.40;99.90;;;;;;4939489;28;20050;-75
2023/12/08 09:52:06;;;;;;;32.90;12.65;;;0.40;99.90;;;;;;4953996;28;20951;-76
2023/12/08 09:54:33;;;;;;;28.50;14.77;;;0.40;99.90;;;;;;4935937;28;20047;-76
2023/12/08 09:57:00;;;;;;;32.80;14.98;;;0.70;99.90;;;;;;4954654;28;20042;-77
2023/12/08 09:59:29;;;;;;;27.48;12.43;;;0.50;99.90;;;;;;4940368;28;20054;-76
2023/12/08 10:01:55;;;;;;;30.60;14.20;;;0.40;99.90;;;;;;4956246;28;20046;-76
2023/12/08 10:04:21;;;;;;;28.80;14.57;;;1.70;99.90;;;;;;4939141;28;20047;-75
2023/12/08 10:06:48;;;;;;;30.52;13.52;;;0.50;99.90;;;;;;4938285;28;20133;-75
2023/12/08 10:09:19;;;;;;;30.55;12.90;;;0.50;99.90;;;;;;4951453;28;20057;-76
2023/12/08 10:11:44;;;;;;;27.48;12.93;;;0.50;99.90;;;;;;4956406;28;20294;-77
2023/12/08 10:14:12;;;;;;;30.73;13.48;;;0.40;99.90;;;;;;4940127;28;20046;-76
2023/12/08 10:16:38;;;;;;;27.00;12.35;;;0.50;99.90;;;;;;4938971;28;20035;-76
2023/12/08 10:19:07;;;;;;;29.73;14.13;;;0.40;99.90;;;;;;4952106;28;20501;-75
2023/12/08 10:21:36;;;;;;;36.38;13.90;;;0.40;99.90;;;;;;4951930;28;20051;-77
2023/12/08 10:24:04;;;;;;;27.40;13.40;;;0.70;99.90;;;;;;4952293;28;20112;-76
2023/12/08 10:26:31;;;;;;;30.00;14.35;;;0.50;99.90;;;;;;4954949;28;20077;-76
2023/12/08 10:28:58;;;;;;;28.83;14.50;;;0.50;99.90;;;;;;4922732;28;20066;-77
2023/12/08 10:31:24;;;;;;;29.25;14.30;;;0.50;99.90;;;;;;4939117;28;20038;-77
2023/12/08 10:33:51;;;;;;;30.63;14.35;;;0.50;99.90;;;;;;4952731;28;20046;-77
2023/12/08 10:36:17;;;;;;;31.92;14.63;;;0.60;99.90;;;;;;4937408;28;20480;-77
2023/12/08 10:38:43;;;;;;;31.90;14.13;;;0.60;99.90;;;;;;4938578;28;20042;-77
2023/12/08 10:41:13;;;;;;;30.85;15.32;;;0.60;99.90;;;;;;4936555;28;20409;-76
2023/12/08 10:43:39;;;;;;;41.13;15.60;;;0.60;99.90;;;;;;4951653;28;20066;-77
2023/12/08 10:46:07;;;;;;;28.95;15.15;;;0.60;99.90;;;;;;4953317;28;20287;-76
2023/12/08 10:48:35;;;;;;;31.42;15.20;;;0.70;99.90;;;;;;4954905;28;20038;-77
2023/12/08 10:51:01;;;;;;;35.65;15.43;;;0.70;99.90;;;;;;4949312;28;20511;-77
2023/12/08 10:53:27;;;;;;;35.53;14.60;;;0.70;99.90;;;;;;4954430;28;20582;-76
2023/12/08 10:56:04;;;;;;;28.90;14.65;;;0.70;99.90;;;;;;4955082;28;20608;-77
2023/12/08 10:58:32;;;;;;;32.13;14.68;;;0.70;99.90;;;;;;4971988;28;20078;-77
2023/12/08 11:01:00;;;;;;;31.77;15.82;;;0.70;99.90;;;;;;4937463;28;20519;-77
2023/12/08 11:03:32;;;;;;;33.38;14.30;;;0.70;99.90;;;;;;4955732;28;20050;-77
2023/12/08 11:06:09;;;;;;;;;;;0.90;99.90;;;;;;4954262;28;20129;-76
2023/12/08 11:08:38;;;;;;;39.30;16.58;;;0.70;99.90;;;;;;4954354;28;20012;-76
2023/12/08 11:11:06;;;;;;;44.88;17.42;;;0.70;99.90;;;;;;4962746;28;20039;-76
2023/12/08 11:13:39;;;;;;;44.90;16.98;;;0.70;99.90;;;;;;4950280;28;20645;-76
2023/12/08 11:16:14;;;;;;;47.97;17.10;;;0.80;99.90;;;;;;4951232;28;20829;-74
2023/12/08 11:18:41;;;;;;;38.53;16.67;;;0.80;99.90;;;;;;4954894;28;20507;-75
2023/12/08 11:21:08;;;;;;;47.97;17.20;;;0.80;99.90;;;;;;4951464;28;20343;-75
2023/12/08 11:23:36;;;;;;;48.65;18.83;;;0.80;99.90;;;;;;4938616;28;20057;-75
2023/12/08 11:26:14;;;;;;;45.78;18.55;;;0.80;99.90;;;;;;4938195;28;20038;-75
2023/12/08 11:28:56;;;;;;;50.58;16.77;;;0.80;99.90;;;;;;4972330;28;20043;-75
2023/12/08 11:31:53;;;;;;;42.53;18.85;;;0.80;99.90;;;;;;4954700;28;20051;-75
2023/12/08 11:34:30;;;;;;;48.50;18.60;;;0.80;99.90;;;;;;4931009;28;20054;-74
2023/12/08 11:36:58;;;;;;;60.33;19.80;;;1.20;99.90;;;;;;4953478;28;20035;-75
2023/12/08 11:39:45;;;;;;;52.22;18.63;;;0.80;99.90;;;;;;4939328;28;20070;-76
2023/12/08 11:42:13;;;;;;;52.13;17.13;;;1.20;99.90;;;;;;4936079;28;20046;-75
2023/12/08 11:44:43;;;;;;;39.22;17.90;;;0.80;99.90;;;;;;4944422;28;20043;-75
2023/12/08 11:47:10;;;;;;;59.85;18.67;;;0.90;99.90;;;;;;4949436;28;20100;-76
2023/12/08 11:49:41;;;;;;;42.53;18.05;;;0.90;99.90;;;;;;4944831;28;20054;-75
2023/12/08 11:52:19;;;;;;;52.00;19.60;;;0.90;99.90;;;;;;4942520;28;20654;-75
2023/12/08 11:55:01;;;;;;;46.45;19.15;;;0.90;99.90;;;;;;4954846;28;20519;-75
2023/12/08 11:57:30;;;;;;;70.38;19.88;;;0.90;99.90;;;;;;4966295;28;20161;-75
2023/12/08 11:59:56;;;;;;;52.60;18.63;;;0.90;99.90;;;;;;4966406;28;20062;-75
2023/12/08 12:02:23;;;;;;;50.72;19.30;;;0.90;99.90;;;;;;4955892;28;20596;-75
2023/12/08 12:04:49;;;;;;;76.63;20.83;;;1.00;99.90;;;;;;4966261;28;20039;-75
2023/12/08 12:07:21;;;;;;;68.25;20.85;;;1.00;99.90;;;;;;4956880;28;20042;-75
2023/12/08 12:09:49;;;;;;;58.70;19.63;;;1.30;99.90;;;;;;4972685;28;20572;-75
2023/12/08 12:12:29;;;;;;;52.22;19.60;;;1.00;99.90;;;;;;4940770;28;20039;-75
2023/12/08 12:14:56;;;;;;;57.55;19.60;;;1.00;99.90;;;;;;4956230;28;20030;-75
2023/12/08 12:17:23;;;;;;;50.65;19.35;;;1.00;99.90;;;;;;4956411;28;20051;-75
2023/12/08 12:19:51;;;;;;;70.18;21.33;;;1.10;99.90;;;;;;4972324;28;20034;-75
2023/12/08 12:22:17;;;;;;;69.18;22.27;;;1.70;99.90;;;;;;4950870;28;20414;-75
2023/12/08 12:24:43;;;;;;;58.40;21.08;;;1.10;99.90;;;;;;4964744;28;20049;-75
2023/12/08 12:27:09;;;;;;;52.00;19.92;;;1.10;99.90;;;;;;4972169;28;20042;-76
2023/12/08 12:29:35;;;;;;;63.40;21.10;;;1.10;99.90;;;;;;4956357;28;20074;-75
2023/12/08 12:32:03;;;;;;;68.07;20.38;;;1.00;99.90;;;;;;4940208;28;20042;-75
2023/12/08 12:34:29;;;;;;;67.10;21.73;;;1.10;99.90;;;;;;4972151;28;20042;-75
2023/12/08 12:36:54;;;;;;;67.60;21.23;;;1.10;99.90;;;;;;4972184;28;20042;-75